Terminal Aerodrome Forecast
Issued by NWS

Home | Current Version | Previous Version | Text Only | Print | Product List | Glossary On
Versions: 1 2 3 4 5 6 7 8 9 10 11 12 13 14 15 16 17 18
696
FTUS41 KBTV 201726
TAFMSS
TAF
KMSS 201726Z 2018/2118 24007KT P6SM VCSH BKN100
     FM202200 23008KT P6SM SCT150
     FM211200 25007KT P6SM SCT050=

USA.gov is the U.S. government's official web portal to all federal, state and local government web resources and services.